Airport View

Enter AWOS ICAO identifier for current METAR.

ex. KFNL

KNKT 100254Z 35005KT 10SM SCT030 26/23 A2985 RMK AO2 SLP104 T02610233 53014 $

10 Jul 2020 03:38

Other Area AWOS: KEWN - KNJM - KMRH - KNBT

TAF KNKT 1003/1103 35006KT 9999 SCT030 QNH2977INS TEMPO 1006/1012 BKN020 BECMG 1018/1020 23006KT SCT030 SCT120 QNH2977INS T23/1009Z T32/1020Z